createdAt,value
2022-07-26T00:02:57.999Z,42.54
2022-07-26T00:08:10.806Z,42.62
2022-07-26T00:13:14.093Z,42.82
2022-07-26T00:18:17.822Z,42.79
2022-07-26T00:23:20.902Z,43.22
2022-07-26T00:28:23.901Z,43.53
2022-07-26T00:33:26.725Z,43.62
2022-07-26T00:38:29.681Z,43.36
2022-07-26T00:43:33.145Z,43.93
2022-07-26T00:48:36.195Z,44.19
2022-07-26T00:53:39.102Z,44.46
2022-07-26T00:58:44.402Z,44.25
2022-07-26T01:03:53.239Z,44.52
2022-07-26T01:08:56.358Z,45.08
2022-07-26T01:13:59.229Z,44.27
2022-07-26T01:19:02.834Z,44.22
2022-07-26T01:24:06.628Z,44.56
2022-07-26T01:29:09.960Z,44.72
2022-07-26T01:34:13.033Z,44.51
2022-07-26T01:39:15.791Z,44.82
2022-07-26T01:44:18.722Z,45.01
2022-07-26T01:49:21.973Z,45.03
2022-07-26T01:54:24.901Z,45.31
2022-07-26T01:59:27.733Z,45.37
2022-07-26T02:04:49.464Z,45.87
2022-07-26T02:09:52.279Z,45.90
2022-07-26T02:14:56.136Z,45.87
2022-07-26T02:19:59.407Z,46.48
2022-07-26T02:25:05.327Z,46.45
2022-07-26T02:30:09.567Z,46.49
2022-07-26T02:35:12.776Z,46.52
2022-07-26T02:40:19.330Z,46.81
2022-07-26T02:45:22.637Z,47.13
2022-07-26T02:50:27.993Z,46.99
2022-07-26T02:55:31.331Z,46.81
2022-07-26T03:00:34.291Z,46.59
2022-07-26T03:05:37.099Z,46.81
2022-07-26T03:10:40.099Z,46.75
2022-07-26T03:15:42.942Z,46.83
2022-07-26T03:20:47.048Z,47.02
2022-07-26T03:25:50.069Z,47.23
2022-07-26T03:30:52.901Z,47.44
2022-07-26T03:35:55.861Z,47.74
2022-07-26T03:40:58.875Z,47.65
2022-07-26T03:46:02.214Z,47.72
2022-07-26T03:51:05.265Z,47.75
2022-07-26T03:56:26.770Z,48.11
2022-07-26T04:01:30.182Z,48.00
2022-07-26T04:06:33.066Z,48.60
2022-07-26T04:11:36.033Z,48.62
2022-07-26T04:16:43.458Z,48.20
2022-07-26T04:21:46.939Z,47.45
2022-07-26T04:26:49.698Z,47.09
2022-07-26T04:31:52.669Z,46.84
2022-07-26T04:36:55.547Z,46.56
2022-07-26T04:41:58.361Z,47.07
2022-07-26T04:47:01.237Z,47.24
2022-07-26T04:52:04.520Z,47.53
2022-07-26T04:57:07.359Z,47.28
2022-07-26T05:02:10.715Z,44.51
2022-07-26T05:07:13.680Z,43.54
2022-07-26T05:12:16.546Z,43.99
2022-07-26T05:17:19.455Z,43.73
2022-07-26T05:22:23.432Z,42.00
2022-07-26T05:27:26.295Z,40.65
2022-07-26T05:32:29.483Z,39.89
2022-07-26T05:37:32.292Z,39.56
2022-07-26T05:42:35.130Z,39.20
2022-07-26T05:47:38.075Z,42.61
2022-07-26T05:52:40.848Z,45.29
2022-07-26T05:57:47.462Z,45.76
2022-07-26T06:02:52.677Z,45.20
2022-07-26T06:07:55.598Z,45.20
2022-07-26T06:12:59.780Z,45.29
2022-07-26T06:18:02.724Z,44.61
2022-07-26T06:23:05.621Z,44.24
2022-07-26T06:28:10.945Z,44.40
2022-07-26T06:33:13.959Z,44.66
2022-07-26T06:38:16.772Z,44.50
2022-07-26T06:43:20.735Z,44.37
2022-07-26T06:48:23.627Z,44.24
2022-07-26T06:53:26.387Z,43.88
2022-07-26T06:58:29.502Z,44.27
2022-07-26T07:03:32.292Z,44.51
2022-07-26T07:08:35.524Z,44.43
2022-07-26T07:13:38.408Z,43.77
2022-07-26T07:18:41.546Z,43.81
2022-07-26T07:23:44.985Z,43.16
2022-07-26T07:28:48.647Z,42.61
2022-07-26T07:33:53.539Z,42.74
2022-07-26T07:38:56.717Z,43.51
2022-07-26T07:44:00.783Z,43.42
2022-07-26T07:49:03.933Z,43.48
2022-07-26T07:54:06.805Z,43.52
2022-07-26T07:59:10.261Z,44.13
2022-07-26T08:04:13.587Z,44.85
2022-07-26T08:09:16.614Z,45.70
2022-07-26T08:14:19.845Z,45.66
2022-07-26T08:19:22.714Z,46.20
2022-07-26T08:24:25.520Z,46.36
2022-07-26T08:29:28.664Z,46.76
2022-07-26T08:34:31.748Z,47.09
2022-07-26T08:39:35.032Z,47.20
2022-07-26T08:44:40.903Z,46.36
2022-07-26T08:49:44.601Z,46.57
2022-07-26T08:54:51.170Z,47.28
2022-07-26T09:00:29.744Z,47.37
2022-07-26T09:05:37.331Z,47.30
2022-07-26T09:10:40.220Z,47.35
2022-07-26T09:15:43.281Z,46.90
2022-07-26T09:20:48.052Z,46.39
2022-07-26T09:25:51.547Z,46.16
2022-07-26T09:31:02.076Z,46.24
2022-07-26T09:36:07.701Z,46.56
2022-07-26T09:41:37.871Z,46.79
2022-07-26T09:46:58.898Z,47.38
2022-07-26T09:52:02.007Z,47.63
2022-07-26T09:57:04.992Z,51.78
2022-07-26T10:02:07.914Z,56.94
2022-07-26T10:07:11.291Z,62.83
2022-07-26T10:12:17.062Z,67.28
2022-07-26T10:17:31.641Z,71.39
2022-07-26T10:22:52.892Z,74.64
2022-07-26T10:27:58.156Z,77.27
2022-07-26T10:33:10.332Z,80.08
2022-07-26T10:38:27.601Z,82.43
2022-07-26T10:43:41.059Z,84.19
2022-07-26T10:49:18.647Z,86.23
2022-07-26T10:54:21.664Z,86.57
2022-07-26T10:59:54.691Z,86.98
2022-07-26T11:05:31.678Z,87.94
2022-07-26T11:10:43.318Z,88.69
2022-07-26T11:16:03.131Z,88.32
2022-07-26T11:21:17.512Z,87.44
2022-07-26T11:26:25.732Z,87.24
2022-07-26T11:31:49.371Z,87.06
2022-07-26T11:36:58.878Z,86.97
2022-07-26T11:42:08.715Z,86.74
2022-07-26T11:47:25.527Z,85.87
2022-07-26T11:52:31.334Z,86.27
2022-07-26T11:57:34.420Z,86.86
2022-07-26T12:02:37.272Z,86.64
2022-07-26T12:07:52.586Z,86.44
2022-07-26T12:13:17.261Z,86.31
2022-07-26T12:18:32.764Z,85.62
2022-07-26T12:23:50.003Z,85.08
2022-07-26T12:28:53.726Z,84.35
2022-07-26T12:33:57.244Z,82.92
2022-07-26T12:39:01.196Z,82.89
2022-07-26T12:44:06.388Z,81.42
2022-07-26T12:49:09.250Z,79.57
2022-07-26T12:54:12.378Z,80.60
2022-07-26T12:59:17.691Z,81.02
2022-07-26T13:04:20.949Z,79.65
2022-07-26T13:09:23.810Z,78.58
2022-07-26T13:14:26.993Z,76.79
2022-07-26T13:19:29.941Z,76.02
2022-07-26T13:24:34.562Z,73.83
2022-07-26T13:29:39.505Z,73.77
2022-07-26T13:34:43.597Z,71.25
2022-07-26T13:39:46.505Z,71.51
2022-07-26T13:44:49.285Z,71.89
2022-07-26T13:49:52.141Z,72.12
2022-07-26T13:54:55.465Z,72.37
2022-07-26T13:59:58.235Z,71.48
2022-07-26T14:05:01.035Z,70.60
2022-07-26T14:10:04.543Z,69.86
2022-07-26T14:15:16.665Z,68.76
2022-07-26T14:20:22.665Z,67.58
2022-07-26T14:25:27.730Z,66.26
2022-07-26T14:30:30.777Z,63.60
2022-07-26T14:35:33.642Z,64.25
2022-07-26T14:40:37.046Z,64.59
2022-07-26T14:45:39.971Z,65.35
2022-07-26T14:51:08.228Z,66.36
2022-07-26T14:56:06.254Z,67.82
2022-07-26T15:01:09.299Z,68.05
2022-07-26T15:06:12.272Z,68.11
2022-07-26T15:11:15.984Z,68.52
2022-07-26T15:16:19.002Z,68.90
2022-07-26T15:21:22.023Z,68.04
2022-07-26T15:26:25.014Z,67.20
2022-07-26T15:31:36.749Z,65.54
2022-07-26T15:36:41.115Z,65.38
2022-07-26T15:41:44.147Z,65.06
2022-07-26T15:46:48.579Z,64.99
2022-07-26T15:51:51.661Z,64.39
2022-07-26T15:56:54.733Z,64.44
2022-07-26T16:01:58.384Z,64.17
2022-07-26T16:07:02.286Z,64.29
2022-07-26T16:12:06.377Z,63.67
2022-07-26T16:17:09.289Z,63.24
2022-07-26T16:22:12.062Z,63.12
2022-07-26T16:27:15.005Z,62.68
2022-07-26T16:32:18.026Z,62.48
2022-07-26T16:37:21.182Z,62.70
2022-07-26T16:42:24.282Z,61.39
2022-07-26T16:47:27.116Z,59.60
2022-07-26T16:52:30.052Z,59.46
2022-07-26T16:57:32.938Z,59.45
2022-07-26T17:02:36.645Z,59.07
2022-07-26T17:07:39.591Z,58.44
2022-07-26T17:12:42.476Z,57.89
2022-07-26T17:17:49.027Z,58.73
2022-07-26T17:22:52.309Z,59.46
2022-07-26T17:27:55.266Z,59.89
2022-07-26T17:32:58.861Z,60.72
2022-07-26T17:38:02.225Z,61.16
2022-07-26T17:43:06.433Z,61.58
2022-07-26T17:48:09.600Z,61.76
2022-07-26T17:53:12.679Z,62.12
2022-07-26T17:58:15.546Z,62.25
2022-07-26T18:03:18.632Z,62.84
2022-07-26T18:08:27.203Z,63.07
2022-07-26T18:13:30.321Z,63.66
2022-07-26T18:18:33.601Z,63.86
2022-07-26T18:23:36.874Z,64.43
2022-07-26T18:28:40.675Z,64.83
2022-07-26T18:33:45.018Z,65.19
2022-07-26T18:38:49.363Z,65.61
2022-07-26T18:43:52.233Z,65.97
2022-07-26T18:48:55.094Z,66.21
2022-07-26T18:54:00.480Z,66.25
2022-07-26T18:59:04.047Z,66.50
2022-07-26T19:04:07.592Z,66.77
2022-07-26T19:09:10.960Z,67.04
2022-07-26T19:14:15.599Z,67.44
2022-07-26T19:19:18.454Z,67.61
2022-07-26T19:24:21.330Z,68.06
2022-07-26T19:29:24.449Z,68.02
2022-07-26T19:34:27.966Z,68.51
2022-07-26T19:39:31.489Z,68.39
2022-07-26T19:44:34.353Z,68.59
2022-07-26T19:49:37.312Z,68.61
2022-07-26T19:54:41.075Z,69.25
2022-07-26T19:59:44.334Z,69.60
2022-07-26T20:04:47.121Z,69.52
2022-07-26T20:09:51.406Z,69.32
2022-07-26T20:14:54.186Z,69.44
2022-07-26T20:19:57.177Z,69.51
2022-07-26T20:25:00.112Z,69.75
2022-07-26T20:30:03.567Z,70.12
2022-07-26T20:35:07.089Z,69.71
2022-07-26T20:40:12.588Z,70.14
2022-07-26T20:45:18.741Z,70.15
2022-07-26T20:50:23.222Z,69.71
2022-07-26T20:55:27.243Z,69.78
2022-07-26T21:00:30.354Z,69.53
2022-07-26T21:05:33.290Z,69.33
2022-07-26T21:10:36.733Z,69.39
2022-07-26T21:15:39.729Z,69.77
2022-07-26T21:20:42.782Z,69.32
2022-07-26T21:25:45.722Z,69.17
2022-07-26T21:30:49.490Z,69.03
2022-07-26T21:35:53.181Z,68.62
2022-07-26T21:40:56.028Z,68.19
2022-07-26T21:45:59.111Z,68.14
2022-07-26T21:51:01.999Z,67.84
2022-07-26T21:56:05.661Z,66.91
2022-07-26T22:01:11.244Z,65.83
2022-07-26T22:06:14.303Z,65.37
2022-07-26T22:11:17.077Z,65.21
2022-07-26T22:16:21.140Z,64.76
2022-07-26T22:21:23.953Z,64.24
2022-07-26T22:26:31.090Z,64.23
2022-07-26T22:31:35.298Z,64.03
2022-07-26T22:36:43.474Z,62.58
2022-07-26T22:42:13.653Z,58.27
2022-07-26T22:47:11.019Z,56.07
2022-07-26T22:52:13.838Z,54.43
2022-07-26T22:57:16.654Z,53.31
2022-07-26T23:02:19.531Z,52.90
2022-07-26T23:07:22.419Z,52.48
2022-07-26T23:12:25.416Z,51.92
2022-07-26T23:17:28.327Z,51.61
2022-07-26T23:22:31.097Z,51.10
2022-07-26T23:27:33.927Z,50.60
2022-07-26T23:32:36.803Z,50.38
2022-07-26T23:37:40.173Z,49.87
2022-07-26T23:42:42.895Z,49.88
2022-07-26T23:47:45.849Z,49.77
2022-07-26T23:52:48.705Z,49.64
2022-07-26T23:57:51.513Z,49.28
